createdAt,value
2023-06-23T00:00:46.460Z,176.67
2023-06-23T00:01:46.515Z,182.00
2023-06-23T00:02:46.563Z,183.31
2023-06-23T00:03:46.703Z,174.13
2023-06-23T00:04:46.555Z,182.54
2023-06-23T00:05:46.571Z,187.43
2023-06-23T00:06:46.604Z,182.71
2023-06-23T00:07:46.611Z,181.33
2023-06-23T00:08:46.622Z,180.14
2023-06-23T00:09:46.629Z,179.85
2023-06-23T00:10:46.659Z,180.30
2023-06-23T00:11:46.708Z,180.97
2023-06-23T00:12:46.711Z,179.98
2023-06-23T00:13:46.765Z,185.48
2023-06-23T00:14:46.779Z,179.73
2023-06-23T00:15:46.800Z,180.58
2023-06-23T00:16:46.846Z,180.82
2023-06-23T00:17:46.920Z,174.68
2023-06-23T00:18:46.912Z,176.03
2023-06-23T00:19:46.941Z,177.05
2023-06-23T00:20:46.999Z,176.38
2023-06-23T00:21:46.997Z,176.82
2023-06-23T00:22:47.034Z,174.12
2023-06-23T00:23:47.092Z,179.03
2023-06-23T00:24:47.128Z,180.81
2023-06-23T00:25:47.165Z,178.50
2023-06-23T00:26:47.230Z,180.26
2023-06-23T00:27:47.280Z,178.37
2023-06-23T00:28:47.303Z,175.27
2023-06-23T00:29:47.328Z,177.30
2023-06-23T00:30:47.373Z,176.15
2023-06-23T00:31:47.526Z,177.81
2023-06-23T00:32:47.479Z,179.75
2023-06-23T00:33:47.509Z,180.55
2023-06-23T00:34:47.544Z,183.04
2023-06-23T00:35:47.587Z,179.10
2023-06-23T00:36:47.606Z,181.15
2023-06-23T00:37:47.679Z,182.55
2023-06-23T00:38:47.741Z,184.34
2023-06-23T00:39:47.733Z,185.26
2023-06-23T00:40:47.839Z,184.12
2023-06-23T00:41:47.832Z,181.95
2023-06-23T00:42:47.872Z,183.33
2023-06-23T00:43:47.949Z,190.98
2023-06-23T00:44:47.956Z,191.94
2023-06-23T00:45:48.016Z,189.05
2023-06-23T00:46:48.032Z,188.39
2023-06-23T00:47:48.193Z,188.77
2023-06-23T00:48:48.152Z,194.43
2023-06-23T00:49:48.243Z,195.34
2023-06-23T00:50:48.266Z,198.05
2023-06-23T00:51:48.320Z,196.25
2023-06-23T00:52:48.375Z,191.50
2023-06-23T00:53:48.431Z,195.10
2023-06-23T00:54:48.469Z,195.19
2023-06-23T00:55:48.506Z,192.70
2023-06-23T00:56:48.584Z,194.26
2023-06-23T00:57:48.667Z,196.15
2023-06-23T00:58:49.261Z,191.20
2023-06-23T00:59:48.738Z,196.31
2023-06-23T01:00:48.811Z,191.95
2023-06-23T01:01:48.870Z,189.82
2023-06-23T01:02:49.041Z,197.60
2023-06-23T01:03:49.028Z,197.89
2023-06-23T01:04:49.069Z,196.47
2023-06-23T01:05:49.155Z,193.48
2023-06-23T01:06:49.174Z,193.30
2023-06-23T01:07:49.243Z,190.35
2023-06-23T01:08:49.305Z,190.86
2023-06-23T01:09:49.324Z,188.99
2023-06-23T01:10:49.424Z,188.76
2023-06-23T01:11:49.456Z,188.64
2023-06-23T01:12:49.539Z,192.01
2023-06-23T01:13:49.601Z,193.87
2023-06-23T01:14:49.646Z,194.37
2023-06-23T01:15:49.663Z,190.83
2023-06-23T01:16:49.742Z,190.03
2023-06-23T01:17:49.839Z,191.97
2023-06-23T01:18:49.852Z,188.75
2023-06-23T01:19:49.881Z,183.42
2023-06-23T01:20:49.966Z,185.03
2023-06-23T01:21:50.002Z,184.40
2023-06-23T01:22:50.045Z,184.33
2023-06-23T01:23:50.098Z,181.44
2023-06-23T01:24:50.147Z,179.38
2023-06-23T01:25:50.230Z,181.34
2023-06-23T01:26:50.245Z,183.79
2023-06-23T01:27:50.303Z,181.80
2023-06-23T01:28:50.399Z,183.17
2023-06-23T01:29:50.403Z,186.28
2023-06-23T01:30:50.468Z,183.82
2023-06-23T01:31:50.571Z,182.76
2023-06-23T01:32:50.683Z,180.67
2023-06-23T01:33:50.644Z,179.05
2023-06-23T01:34:50.668Z,174.52
2023-06-23T01:35:50.751Z,177.15
2023-06-23T01:36:50.790Z,178.23
2023-06-23T01:37:50.847Z,178.51
2023-06-23T01:38:50.904Z,176.57
2023-06-23T01:39:50.963Z,175.67
2023-06-23T01:40:51.017Z,176.32
2023-06-23T01:41:51.097Z,179.75
2023-06-23T01:42:51.129Z,178.21
2023-06-23T01:43:51.218Z,180.06
2023-06-23T01:44:51.251Z,182.88
2023-06-23T01:45:51.300Z,181.03
2023-06-23T01:46:51.299Z,180.94
2023-06-23T01:47:51.367Z,176.66
2023-06-23T01:48:51.362Z,175.42
2023-06-23T01:49:51.344Z,172.40
2023-06-23T01:50:51.397Z,172.54
2023-06-23T01:51:51.401Z,172.91
2023-06-23T01:52:51.424Z,172.55
2023-06-23T01:53:51.542Z,170.91
2023-06-23T01:54:51.474Z,171.47
2023-06-23T01:55:51.574Z,169.83
2023-06-23T01:56:51.556Z,171.52
2023-06-23T01:57:51.580Z,170.27
2023-06-23T01:58:51.661Z,171.90
2023-06-23T01:59:51.603Z,168.87
2023-06-23T02:00:51.639Z,169.51
2023-06-23T02:01:51.779Z,172.56
2023-06-23T02:02:51.839Z,171.75
2023-06-23T02:03:51.845Z,169.97
2023-06-23T02:04:51.835Z,169.53
2023-06-23T02:05:51.810Z,165.67
2023-06-23T02:06:51.814Z,166.37
2023-06-23T02:07:51.870Z,164.80
2023-06-23T02:08:51.890Z,165.67
2023-06-23T02:09:51.881Z,169.05
2023-06-23T02:10:51.895Z,165.70
2023-06-23T02:11:51.890Z,163.98
2023-06-23T02:12:51.846Z,154.92
2023-06-23T02:13:51.894Z,154.49
2023-06-23T02:14:51.930Z,153.44
2023-06-23T02:15:51.900Z,147.89
2023-06-23T02:16:51.938Z,147.49
2023-06-23T02:17:51.964Z,147.31
2023-06-23T02:18:51.896Z,146.48
2023-06-23T02:19:51.950Z,145.07
2023-06-23T02:20:51.936Z,143.23
2023-06-23T02:21:51.946Z,141.56
2023-06-23T02:22:51.973Z,143.23
2023-06-23T02:23:51.954Z,137.75
2023-06-23T02:24:51.968Z,141.73
2023-06-23T02:25:51.962Z,134.63
2023-06-23T02:26:51.953Z,138.84
2023-06-23T02:27:51.956Z,136.39
2023-06-23T02:28:51.958Z,134.36
2023-06-23T02:29:51.976Z,130.21
2023-06-23T02:30:51.942Z,132.30
2023-06-23T02:31:52.032Z,134.00
2023-06-23T02:32:52.037Z,138.31
2023-06-23T02:33:51.947Z,130.25
2023-06-23T02:34:51.936Z,124.50
2023-06-23T02:35:51.953Z,133.26
2023-06-23T02:36:51.954Z,128.88
2023-06-23T02:37:51.951Z,127.15
2023-06-23T02:38:51.965Z,128.10
2023-06-23T02:39:51.975Z,124.60
2023-06-23T02:40:51.944Z,126.28
2023-06-23T02:41:51.962Z,128.01
2023-06-23T02:42:51.955Z,120.94
2023-06-23T02:43:51.983Z,119.28
2023-06-23T02:44:51.971Z,115.33
2023-06-23T02:45:51.962Z,111.66
2023-06-23T02:46:51.983Z,112.61
2023-06-23T02:47:52.040Z,114.26
2023-06-23T02:48:51.982Z,112.17
2023-06-23T02:49:51.962Z,116.72
2023-06-23T02:50:51.970Z,111.30
2023-06-23T02:51:51.986Z,108.69
2023-06-23T02:52:52.007Z,112.83
2023-06-23T02:53:52.015Z,114.60
2023-06-23T02:54:52.052Z,113.36
2023-06-23T02:55:52.045Z,115.28
2023-06-23T02:56:52.028Z,116.13
2023-06-23T02:57:52.069Z,111.70
2023-06-23T02:58:52.075Z,113.51
2023-06-23T02:59:52.078Z,114.81
2023-06-23T03:00:52.153Z,116.08
2023-06-23T03:01:52.114Z,113.35
2023-06-23T03:02:52.252Z,118.78
2023-06-23T03:03:52.169Z,111.57
2023-06-23T03:04:52.171Z,113.07
2023-06-23T03:05:52.166Z,110.38
2023-06-23T03:06:52.192Z,110.71
2023-06-23T03:07:52.257Z,111.98
2023-06-23T03:08:52.293Z,112.68
2023-06-23T03:09:52.246Z,119.28
2023-06-23T03:10:52.293Z,116.14
2023-06-23T03:11:52.302Z,108.49
2023-06-23T03:12:52.379Z,111.71
2023-06-23T03:13:52.413Z,110.62
2023-06-23T03:14:52.454Z,112.73
2023-06-23T03:15:52.500Z,121.07
2023-06-23T03:16:52.501Z,122.64
2023-06-23T03:17:52.597Z,126.09
2023-06-23T03:18:52.581Z,129.36
2023-06-23T03:19:52.626Z,128.15
2023-06-23T03:20:52.690Z,130.01
2023-06-23T03:21:52.739Z,134.94
2023-06-23T03:22:52.800Z,137.18
2023-06-23T03:23:52.860Z,140.38
2023-06-23T03:24:52.927Z,140.71
2023-06-23T03:25:52.951Z,141.33
2023-06-23T03:26:52.995Z,147.70
2023-06-23T03:27:53.033Z,154.64
2023-06-23T03:28:53.102Z,154.40
2023-06-23T03:29:53.176Z,157.53
2023-06-23T03:30:53.225Z,161.63
2023-06-23T03:31:53.242Z,165.25
2023-06-23T03:32:53.340Z,163.44
2023-06-23T03:33:53.389Z,168.05
2023-06-23T03:34:53.433Z,167.63
2023-06-23T03:35:53.447Z,172.52
2023-06-23T03:36:53.570Z,177.26
2023-06-23T03:37:53.598Z,180.22
2023-06-23T03:38:53.661Z,186.24
2023-06-23T03:39:53.686Z,192.01
2023-06-23T03:40:53.742Z,189.71
2023-06-23T03:41:53.827Z,196.81
2023-06-23T03:42:53.884Z,197.68
2023-06-23T03:43:53.950Z,199.95
2023-06-23T03:44:54.036Z,199.42
2023-06-23T03:45:54.078Z,200.00
2023-06-23T03:46:54.214Z,199.54
2023-06-23T03:47:54.238Z,200.00
2023-06-23T03:48:54.277Z,199.96
2023-06-23T03:49:54.343Z,195.81
2023-06-23T03:50:54.376Z,196.48
2023-06-23T03:51:54.444Z,193.20
2023-06-23T03:52:54.517Z,192.19
2023-06-23T03:53:54.592Z,193.50
2023-06-23T03:54:54.620Z,195.05
2023-06-23T03:55:54.655Z,194.32
2023-06-23T03:56:54.744Z,196.74
2023-06-23T03:57:54.776Z,195.80
2023-06-23T03:58:54.839Z,197.66
2023-06-23T03:59:54.916Z,199.36
2023-06-23T04:00:54.932Z,200.00
2023-06-23T04:01:55.086Z,197.41
2023-06-23T04:02:55.111Z,199.73
2023-06-23T04:03:55.145Z,197.26
2023-06-23T04:04:55.206Z,196.33
2023-06-23T04:05:55.234Z,197.11
2023-06-23T04:06:55.253Z,196.77
2023-06-23T04:07:55.306Z,199.22
2023-06-23T04:08:55.372Z,197.28
2023-06-23T04:09:55.432Z,197.99
2023-06-23T04:10:55.449Z,194.80
2023-06-23T04:11:55.498Z,194.60
2023-06-23T04:12:55.539Z,196.14
2023-06-23T04:13:55.614Z,196.70
2023-06-23T04:14:55.596Z,197.10
2023-06-23T04:15:55.590Z,195.29
2023-06-23T04:16:55.675Z,192.94
2023-06-23T04:17:55.750Z,192.87
2023-06-23T04:18:55.765Z,199.81
2023-06-23T04:19:55.793Z,198.48
2023-06-23T04:20:55.878Z,194.72
2023-06-23T04:21:55.938Z,189.57
2023-06-23T04:22:55.988Z,192.89
2023-06-23T04:23:56.037Z,193.67
2023-06-23T04:24:56.045Z,198.89
2023-06-23T04:25:56.045Z,195.09
2023-06-23T04:26:56.062Z,194.62
2023-06-23T04:27:56.034Z,194.93
2023-06-23T04:28:56.077Z,194.21
2023-06-23T04:29:56.077Z,195.41
2023-06-23T04:30:56.119Z,195.11
2023-06-23T04:31:56.210Z,198.40
2023-06-23T04:32:56.162Z,195.81
2023-06-23T04:33:56.131Z,194.53
2023-06-23T04:34:56.145Z,198.96
2023-06-23T04:35:56.153Z,199.77
2023-06-23T04:36:56.232Z,195.86
2023-06-23T04:37:56.178Z,194.53
2023-06-23T04:38:56.176Z,195.09
2023-06-23T04:39:56.179Z,196.07
2023-06-23T04:40:56.170Z,196.18
2023-06-23T04:41:56.188Z,198.26
2023-06-23T04:42:56.163Z,197.40
2023-06-23T04:43:56.180Z,199.30
2023-06-23T04:44:56.187Z,197.90
2023-06-23T04:45:56.178Z,196.23
2023-06-23T04:46:56.182Z,194.00
2023-06-23T04:47:56.237Z,194.88
2023-06-23T04:48:56.155Z,193.39
2023-06-23T04:49:56.158Z,191.05
2023-06-23T04:50:56.170Z,193.53
2023-06-23T04:51:56.189Z,194.63
2023-06-23T04:52:56.158Z,193.54
2023-06-23T04:53:56.240Z,191.72
2023-06-23T04:54:56.186Z,190.70
2023-06-23T04:55:56.156Z,195.55
2023-06-23T04:56:56.175Z,193.00
2023-06-23T04:57:56.222Z,192.61
2023-06-23T04:58:56.190Z,191.25
2023-06-23T04:59:56.242Z,194.47
2023-06-23T05:00:56.257Z,194.69
2023-06-23T05:01:56.224Z,191.65
2023-06-23T05:02:56.331Z,192.98
2023-06-23T05:03:56.358Z,193.20
2023-06-23T05:04:56.617Z,193.12
2023-06-23T05:05:56.201Z,195.01
2023-06-23T05:06:56.239Z,194.20
2023-06-23T05:07:56.228Z,192.07
2023-06-23T05:08:56.224Z,192.89
2023-06-23T05:09:56.235Z,197.82
2023-06-23T05:10:58.131Z,198.27
2023-06-23T05:11:56.235Z,199.52
2023-06-23T05:12:56.220Z,196.33
2023-06-23T05:13:56.234Z,197.48
2023-06-23T05:14:56.240Z,197.55
2023-06-23T05:15:56.194Z,197.75
2023-06-23T05:16:56.227Z,198.44
2023-06-23T05:17:56.283Z,199.04
2023-06-23T05:18:56.223Z,201.27
2023-06-23T05:19:56.218Z,201.82
2023-06-23T05:20:56.197Z,198.29
2023-06-23T05:21:56.196Z,200.00
2023-06-23T05:22:56.164Z,199.13
2023-06-23T05:23:56.155Z,197.46
2023-06-23T05:24:56.151Z,193.45
2023-06-23T05:25:56.131Z,193.57
2023-06-23T05:26:56.115Z,195.45
2023-06-23T05:27:56.115Z,194.48
2023-06-23T05:28:56.140Z,190.55
2023-06-23T05:29:56.121Z,191.78
2023-06-23T05:30:56.247Z,193.73
2023-06-23T05:31:56.104Z,191.45
2023-06-23T05:32:56.135Z,191.47
2023-06-23T05:33:56.094Z,193.73
2023-06-23T05:34:56.128Z,191.77
2023-06-23T05:35:56.125Z,190.40
2023-06-23T05:36:56.066Z,188.70
2023-06-23T05:37:56.073Z,193.45
2023-06-23T05:38:56.087Z,199.47
2023-06-23T05:39:56.090Z,200.00
2023-06-23T05:40:56.071Z,201.00
2023-06-23T05:41:56.056Z,200.06
2023-06-23T05:42:56.037Z,199.95
2023-06-23T05:43:56.046Z,198.87
2023-06-23T05:44:56.024Z,200.00
2023-06-23T05:45:56.034Z,199.23
2023-06-23T05:46:56.089Z,200.38
2023-06-23T05:47:56.058Z,197.63
2023-06-23T05:48:55.987Z,198.92
2023-06-23T05:49:55.968Z,202.11
2023-06-23T05:50:55.995Z,200.00
2023-06-23T05:51:55.959Z,199.11
2023-06-23T05:52:55.942Z,197.42
2023-06-23T05:53:55.996Z,194.65
2023-06-23T05:54:55.994Z,193.77
2023-06-23T05:55:55.931Z,194.86
2023-06-23T05:56:55.929Z,199.96
2023-06-23T05:57:55.941Z,199.14
2023-06-23T05:58:55.913Z,194.55
2023-06-23T05:59:55.935Z,194.06
2023-06-23T06:02:00.834Z,50.00
2023-06-23T06:03:00.946Z,50.00
2023-06-23T06:04:00.926Z,50.00
2023-06-23T06:05:00.832Z,50.00
2023-06-23T06:06:00.825Z,50.00
2023-06-23T06:07:00.822Z,50.00
2023-06-23T06:08:00.818Z,52.47
2023-06-23T06:09:00.820Z,58.08
2023-06-23T06:10:00.789Z,58.51
2023-06-23T06:11:00.771Z,65.75
2023-06-23T06:12:00.752Z,67.01
2023-06-23T06:13:00.760Z,65.27
2023-06-23T06:14:00.786Z,62.84
2023-06-23T06:15:00.771Z,58.07
2023-06-23T06:16:00.756Z,61.61
2023-06-23T06:17:00.764Z,67.70
2023-06-23T06:18:00.797Z,64.98
2023-06-23T06:19:00.733Z,69.50
2023-06-23T06:20:00.719Z,65.72
2023-06-23T06:21:00.697Z,69.69
2023-06-23T06:22:00.686Z,72.37
2023-06-23T06:23:15.280Z,70.82
2023-06-23T06:24:01.806Z,71.27
2023-06-23T06:25:00.707Z,72.85
2023-06-23T06:26:00.690Z,76.11
2023-06-23T06:27:01.524Z,81.62
2023-06-23T06:28:00.649Z,87.88
2023-06-23T06:29:00.689Z,90.69
2023-06-23T06:30:00.666Z,92.22
2023-06-23T06:31:00.675Z,95.46
2023-06-23T06:32:00.655Z,96.51
2023-06-23T06:33:00.712Z,100.04
2023-06-23T06:34:00.654Z,104.00
2023-06-23T06:35:00.637Z,108.01
2023-06-23T06:36:00.654Z,104.23
2023-06-23T06:37:00.603Z,102.41
2023-06-23T06:38:00.642Z,99.31
2023-06-23T06:39:00.624Z,95.74
2023-06-23T06:40:00.664Z,99.93
2023-06-23T06:41:00.585Z,97.39
2023-06-23T06:42:00.617Z,103.20
2023-06-23T06:43:00.566Z,113.40
2023-06-23T06:44:00.611Z,113.79
2023-06-23T06:45:00.551Z,115.38
2023-06-23T06:46:00.550Z,103.88
2023-06-23T06:47:00.534Z,107.50
2023-06-23T06:48:00.615Z,104.72
2023-06-23T06:49:00.528Z,88.20
2023-06-23T06:50:00.560Z,93.36
2023-06-23T06:51:00.497Z,89.81
2023-06-23T06:52:00.493Z,93.00
2023-06-23T06:53:00.551Z,92.94
2023-06-23T06:54:00.514Z,94.46
2023-06-23T06:55:00.546Z,97.94
2023-06-23T06:56:00.608Z,91.02
2023-06-23T06:57:00.598Z,84.49
2023-06-23T06:58:00.596Z,84.32
2023-06-23T06:59:00.641Z,85.15
2023-06-23T07:00:00.681Z,77.75
2023-06-23T07:01:00.686Z,81.98
2023-06-23T07:02:00.795Z,78.21
2023-06-23T07:03:00.901Z,69.38
2023-06-23T07:04:00.855Z,54.52
2023-06-23T07:05:00.844Z,50.00
2023-06-23T07:06:00.864Z,53.10
2023-06-23T07:07:00.931Z,55.46
2023-06-23T07:08:00.978Z,61.11
2023-06-23T07:09:01.016Z,56.35
2023-06-23T07:10:01.109Z,64.91
2023-06-23T07:11:01.153Z,71.40
2023-06-23T07:12:01.219Z,64.35
2023-06-23T07:13:01.222Z,72.27
2023-06-23T07:14:01.328Z,77.34
2023-06-23T07:15:01.347Z,74.40
2023-06-23T07:16:01.483Z,71.61
2023-06-23T07:17:01.389Z,77.53
2023-06-23T07:18:01.461Z,80.37
2023-06-23T07:19:01.479Z,79.84
2023-06-23T07:20:01.485Z,85.80
2023-06-23T07:21:01.510Z,79.01
2023-06-23T07:22:01.530Z,84.74
2023-06-23T07:23:01.556Z,93.61
2023-06-23T07:24:01.547Z,105.11
2023-06-23T07:25:01.548Z,110.45
2023-06-23T07:26:01.560Z,120.75
2023-06-23T07:27:01.565Z,117.20
2023-06-23T07:28:01.549Z,121.77
2023-06-23T07:29:01.633Z,124.11
2023-06-23T07:30:01.740Z,131.73
2023-06-23T07:31:01.990Z,140.18
2023-06-23T07:32:01.849Z,135.94
2023-06-23T07:33:01.890Z,137.19
2023-06-23T07:34:01.903Z,133.76
2023-06-23T07:35:01.959Z,132.21
2023-06-23T07:36:02.024Z,128.77
2023-06-23T07:37:02.091Z,126.22
2023-06-23T07:38:02.131Z,124.98
2023-06-23T07:39:02.221Z,128.35
2023-06-23T07:40:02.272Z,122.48
2023-06-23T07:41:02.325Z,118.08
2023-06-23T07:42:02.340Z,120.84
2023-06-23T07:43:02.370Z,114.20
2023-06-23T07:44:02.428Z,108.82
2023-06-23T07:45:02.484Z,85.88
2023-06-23T07:46:02.670Z,65.16
2023-06-23T07:47:02.558Z,57.05
2023-06-23T07:48:02.604Z,68.02
2023-06-23T07:49:03.195Z,73.23
2023-06-23T07:50:02.809Z,80.41
2023-06-23T07:51:02.606Z,83.75
2023-06-23T07:52:02.627Z,85.04
2023-06-23T07:53:02.612Z,85.21
2023-06-23T07:54:07.282Z,94.63
2023-06-23T07:55:03.641Z,94.83
2023-06-23T07:56:02.575Z,95.81
2023-06-23T07:57:02.714Z,96.23
2023-06-23T07:58:02.617Z,98.45
2023-06-23T07:59:02.615Z,99.37
2023-06-23T08:00:02.586Z,101.27
2023-06-23T08:01:02.585Z,96.84
2023-06-23T08:02:02.572Z,99.26
2023-06-23T08:03:02.706Z,106.32
2023-06-23T08:04:02.815Z,109.18
2023-06-23T08:05:02.812Z,111.26
2023-06-23T08:06:02.791Z,113.22
2023-06-23T08:07:02.841Z,114.66
2023-06-23T08:08:02.901Z,107.50
2023-06-23T08:09:02.974Z,106.27
2023-06-23T08:10:02.982Z,107.94
2023-06-23T08:11:03.031Z,108.66
2023-06-23T08:12:03.054Z,105.73
2023-06-23T08:13:03.130Z,107.66
2023-06-23T08:14:03.130Z,106.70
2023-06-23T08:15:03.219Z,103.06
2023-06-23T08:16:03.305Z,106.65
2023-06-23T08:17:03.333Z,99.99
2023-06-23T08:18:03.330Z,107.07
2023-06-23T08:19:03.354Z,102.34
2023-06-23T08:20:03.391Z,110.04
2023-06-23T08:21:03.494Z,110.61
2023-06-23T08:22:03.463Z,114.92
2023-06-23T08:23:03.504Z,111.59
2023-06-23T08:24:03.566Z,114.65
2023-06-23T08:25:03.603Z,107.53
2023-06-23T08:26:03.651Z,103.78
2023-06-23T08:27:03.683Z,96.82
2023-06-23T08:28:03.714Z,96.83
2023-06-23T08:29:03.749Z,100.17
2023-06-23T08:30:03.815Z,102.09
2023-06-23T08:31:03.897Z,105.40
2023-06-23T08:32:03.879Z,117.80
2023-06-23T08:33:03.926Z,123.16
2023-06-23T08:34:03.977Z,105.47
2023-06-23T08:35:04.010Z,109.98
2023-06-23T08:36:04.059Z,74.82
2023-06-23T08:37:04.075Z,85.53
2023-06-23T08:38:04.064Z,75.70
2023-06-23T08:39:04.061Z,68.54
2023-06-23T08:40:04.077Z,60.33
2023-06-23T08:41:04.077Z,58.63
2023-06-23T08:42:04.092Z,66.08
2023-06-23T08:43:04.115Z,63.62
2023-06-23T08:44:04.139Z,60.34
2023-06-23T08:45:04.167Z,64.30
2023-06-23T08:46:04.191Z,62.28
2023-06-23T08:47:07.025Z,69.15
2023-06-23T08:48:04.314Z,74.19
2023-06-23T08:49:04.171Z,72.06
2023-06-23T08:50:04.170Z,81.90
2023-06-23T08:51:04.192Z,81.97
2023-06-23T08:52:04.204Z,73.98
2023-06-23T08:53:04.129Z,64.73
2023-06-23T08:54:04.120Z,69.75
2023-06-23T08:55:04.122Z,85.16
2023-06-23T08:56:04.108Z,85.17
2023-06-23T08:57:04.079Z,87.49
2023-06-23T08:58:04.089Z,85.44
2023-06-23T08:59:04.138Z,83.08
2023-06-23T09:00:04.087Z,81.77
2023-06-23T09:01:04.231Z,81.54
2023-06-23T09:02:04.100Z,82.06
2023-06-23T09:03:04.127Z,74.97
2023-06-23T09:04:04.038Z,70.18
2023-06-23T09:05:04.050Z,67.58
2023-06-23T09:06:04.057Z,71.30
2023-06-23T09:07:04.025Z,72.00
2023-06-23T09:08:04.032Z,75.90
2023-06-23T09:09:04.021Z,78.53
2023-06-23T09:10:04.012Z,72.91
2023-06-23T09:11:04.121Z,66.80
2023-06-23T09:12:03.988Z,68.22
2023-06-23T09:13:04.796Z,64.59
2023-06-23T09:14:03.988Z,65.61
2023-06-23T09:15:03.960Z,61.46
2023-06-23T09:16:04.700Z,61.04
2023-06-23T09:17:03.961Z,63.20
2023-06-23T09:18:04.043Z,50.23
2023-06-23T09:19:03.963Z,50.00
2023-06-23T09:20:03.934Z,51.24
2023-06-23T09:21:04.145Z,51.59
2023-06-23T09:22:04.060Z,53.74
2023-06-23T09:23:03.921Z,52.27
2023-06-23T09:24:03.934Z,50.59
2023-06-23T09:25:03.905Z,51.68
2023-06-23T09:26:03.937Z,54.40
2023-06-23T09:27:03.873Z,57.95
2023-06-23T09:28:03.905Z,54.00
2023-06-23T09:29:03.875Z,52.69
2023-06-23T09:30:03.879Z,54.41
2023-06-23T09:31:03.889Z,53.33
2023-06-23T09:32:03.874Z,66.40
2023-06-23T09:33:03.984Z,67.50
2023-06-23T09:34:03.858Z,63.28
2023-06-23T09:35:03.831Z,66.53
2023-06-23T09:36:03.864Z,65.05
2023-06-23T09:37:03.862Z,63.37
2023-06-23T09:38:03.858Z,68.18
2023-06-23T09:39:03.826Z,64.88
2023-06-23T09:40:03.842Z,60.03
2023-06-23T09:41:03.766Z,51.09
2023-06-23T09:42:03.785Z,52.39
2023-06-23T09:43:03.793Z,52.85
2023-06-23T09:44:03.792Z,50.00
2023-06-23T09:45:03.813Z,50.95
2023-06-23T09:46:03.780Z,51.25
2023-06-23T09:47:03.788Z,56.78
2023-06-23T09:48:03.977Z,65.73
2023-06-23T09:49:03.874Z,80.41
2023-06-23T09:50:03.860Z,90.80
2023-06-23T09:51:03.885Z,89.35
2023-06-23T09:52:03.870Z,104.90
2023-06-23T09:53:03.886Z,107.12
2023-06-23T09:54:03.903Z,129.41
2023-06-23T09:55:03.954Z,142.13
2023-06-23T09:56:04.029Z,140.67
2023-06-23T09:57:04.046Z,158.32
2023-06-23T09:58:04.090Z,169.03
2023-06-23T09:59:04.113Z,171.88
2023-06-23T10:00:04.202Z,176.68
2023-06-23T10:01:04.191Z,183.34
2023-06-23T10:02:04.238Z,186.72
2023-06-23T10:03:04.375Z,188.91
2023-06-23T10:04:04.297Z,186.20
2023-06-23T10:05:04.192Z,195.25
2023-06-23T10:06:04.190Z,197.71
2023-06-23T10:07:04.178Z,195.76
2023-06-23T10:08:05.977Z,199.79
2023-06-23T10:09:04.220Z,199.82
2023-06-23T10:10:20.797Z,183.90
2023-06-23T10:11:05.205Z,184.34
2023-06-23T10:12:04.205Z,186.50
2023-06-23T10:13:04.181Z,191.52
2023-06-23T10:14:04.196Z,199.57
2023-06-23T10:15:04.175Z,209.60
2023-06-23T10:16:04.181Z,198.52
2023-06-23T10:17:04.182Z,200.00
2023-06-23T10:18:04.224Z,198.78
2023-06-23T10:19:04.202Z,188.82
2023-06-23T10:20:04.184Z,190.14
2023-06-23T10:21:04.166Z,189.07
2023-06-23T10:22:04.147Z,189.80
2023-06-23T10:23:04.153Z,187.51
2023-06-23T10:24:04.133Z,195.71
2023-06-23T10:25:04.134Z,194.51
2023-06-23T10:26:04.229Z,197.16
2023-06-23T10:27:04.122Z,199.77
2023-06-23T10:28:04.130Z,199.73
2023-06-23T10:29:04.114Z,199.45
2023-06-23T10:30:04.211Z,198.15
2023-06-23T10:31:04.150Z,183.85
2023-06-23T10:32:04.151Z,193.26
2023-06-23T10:33:04.144Z,195.78
2023-06-23T10:34:04.075Z,196.62
2023-06-23T10:35:04.084Z,195.66
2023-06-23T10:36:04.035Z,171.37
2023-06-23T10:37:04.053Z,171.83
2023-06-23T10:38:04.013Z,178.04
2023-06-23T10:39:04.009Z,181.99
2023-06-23T10:40:04.066Z,192.93
2023-06-23T10:41:04.003Z,197.52
2023-06-23T10:42:04.000Z,195.66
2023-06-23T10:43:04.011Z,157.94
2023-06-23T10:44:03.978Z,152.29
2023-06-23T10:45:04.011Z,156.26
2023-06-23T10:46:04.089Z,174.82
2023-06-23T10:47:03.990Z,183.17
2023-06-23T10:48:04.027Z,193.05
2023-06-23T10:49:03.970Z,193.73
2023-06-23T10:50:03.974Z,199.38
2023-06-23T10:51:03.993Z,192.06
2023-06-23T10:52:03.965Z,187.91
2023-06-23T10:53:03.930Z,196.90
2023-06-23T10:54:03.970Z,198.76
2023-06-23T10:55:03.961Z,198.17
2023-06-23T10:56:09.796Z,194.62
2023-06-23T10:57:04.897Z,194.92
2023-06-23T10:58:03.881Z,194.98
2023-06-23T10:59:03.910Z,192.42
2023-06-23T11:00:03.903Z,184.99
2023-06-23T11:01:03.955Z,193.46
2023-06-23T11:02:03.902Z,197.04
2023-06-23T11:03:03.929Z,197.65
2023-06-23T11:04:03.863Z,195.33
2023-06-23T11:05:03.940Z,195.10
2023-06-23T11:06:03.916Z,194.70
2023-06-23T11:07:03.992Z,197.46
2023-06-23T11:08:04.037Z,197.57
2023-06-23T11:09:04.107Z,197.44
2023-06-23T11:10:04.195Z,196.19
2023-06-23T11:11:04.197Z,201.67
2023-06-23T11:12:04.282Z,207.09
2023-06-23T11:13:04.314Z,184.85
2023-06-23T11:14:04.390Z,179.83
2023-06-23T11:15:04.624Z,171.71
2023-06-23T11:16:04.502Z,173.01
2023-06-23T11:17:04.570Z,174.50
2023-06-23T11:18:04.659Z,173.78
2023-06-23T11:19:04.697Z,172.38
2023-06-23T11:20:04.765Z,173.02
2023-06-23T11:21:04.799Z,170.28
2023-06-23T11:22:04.839Z,175.76
2023-06-23T11:23:04.914Z,176.47
2023-06-23T11:24:04.972Z,162.29
2023-06-23T11:25:05.048Z,162.78
2023-06-23T11:26:05.067Z,169.42
2023-06-23T11:27:05.151Z,171.71
2023-06-23T11:28:05.198Z,169.15
2023-06-23T11:29:05.267Z,153.28
2023-06-23T11:30:05.330Z,123.55
2023-06-23T11:31:05.414Z,121.35
2023-06-23T11:32:05.302Z,132.16
2023-06-23T11:33:05.424Z,127.14
2023-06-23T11:34:05.307Z,138.86
2023-06-23T11:35:05.309Z,145.44
2023-06-23T11:36:05.316Z,150.30
2023-06-23T11:37:05.254Z,140.76
2023-06-23T11:38:05.290Z,124.29
2023-06-23T11:39:05.294Z,115.93
2023-06-23T11:40:05.307Z,116.11
2023-06-23T11:41:05.327Z,119.11
2023-06-23T11:42:05.287Z,114.91
2023-06-23T11:43:20.498Z,108.57
2023-06-23T11:44:06.312Z,102.82
2023-06-23T11:45:05.322Z,108.57
2023-06-23T11:46:05.287Z,110.86
2023-06-23T11:47:05.296Z,117.90
2023-06-23T11:48:05.307Z,115.50
2023-06-23T11:49:05.278Z,107.11
2023-06-23T11:50:05.320Z,123.19
2023-06-23T11:51:05.264Z,126.59
2023-06-23T11:52:05.226Z,119.12
2023-06-23T11:53:05.255Z,121.10
2023-06-23T11:54:05.260Z,122.66
2023-06-23T11:55:05.272Z,125.65
2023-06-23T11:56:05.229Z,123.77
2023-06-23T11:57:05.231Z,122.53
2023-06-23T11:58:05.224Z,119.01
2023-06-23T11:59:05.194Z,102.30
2023-06-23T12:00:05.284Z,96.81
2023-06-23T12:01:05.182Z,81.46
2023-06-23T12:02:05.193Z,72.26
2023-06-23T12:03:05.223Z,69.25
2023-06-23T12:04:05.345Z,75.36
2023-06-23T12:05:05.269Z,74.49
2023-06-23T12:06:05.163Z,76.92
2023-06-23T12:07:05.178Z,80.31
2023-06-23T12:08:05.169Z,87.26
2023-06-23T12:09:05.168Z,84.41
2023-06-23T12:10:05.180Z,81.81
2023-06-23T12:11:05.158Z,78.04
2023-06-23T12:12:05.598Z,71.11
2023-06-23T12:13:05.260Z,80.41
2023-06-23T12:14:05.248Z,77.16
2023-06-23T12:15:05.263Z,68.41
2023-06-23T12:16:05.265Z,65.50
2023-06-23T12:17:05.259Z,71.19
2023-06-23T12:18:05.271Z,71.06
2023-06-23T12:19:05.293Z,69.26
2023-06-23T12:20:05.266Z,67.12
2023-06-23T12:21:05.272Z,60.13
2023-06-23T12:22:05.280Z,54.11
2023-06-23T12:23:05.262Z,53.42
2023-06-23T12:24:05.288Z,57.49
2023-06-23T12:25:05.258Z,50.31
2023-06-23T12:26:05.267Z,43.87
2023-06-23T12:27:05.256Z,56.77
2023-06-23T12:28:05.260Z,62.96
2023-06-23T12:29:05.245Z,65.29
2023-06-23T12:30:05.252Z,63.90
2023-06-23T12:31:05.340Z,60.73
2023-06-23T12:32:05.321Z,59.84
2023-06-23T12:33:05.279Z,64.03
2023-06-23T12:34:05.291Z,65.21
2023-06-23T12:35:05.296Z,67.75
2023-06-23T12:36:05.309Z,55.80